createdAt,value
2019-02-12T00:00:54.088Z,2.37
2019-02-12T00:01:55.533Z,2.10
2019-02-12T00:02:56.873Z,2.45
2019-02-12T00:03:58.243Z,2.60
2019-02-12T00:04:59.556Z,2.80
2019-02-12T00:06:00.888Z,2.50
2019-02-12T00:07:02.219Z,3.12
2019-02-12T00:08:04.104Z,2.77
2019-02-12T00:09:05.430Z,2.47
2019-02-12T00:10:06.779Z,2.72
2019-02-12T00:11:08.098Z,2.42
2019-02-12T00:12:09.444Z,2.90
2019-02-12T00:13:10.843Z,2.60
2019-02-12T00:14:12.280Z,3.98
2019-02-12T00:15:13.644Z,2.75
2019-02-12T00:16:14.967Z,2.65
2019-02-12T00:17:16.313Z,2.83
2019-02-12T00:18:17.656Z,2.83
2019-02-12T00:19:18.977Z,3.87
2019-02-12T00:20:20.553Z,2.65
2019-02-12T00:21:21.981Z,3.12
2019-02-12T00:22:23.330Z,2.72
2019-02-12T00:23:24.663Z,2.52
2019-02-12T00:24:25.991Z,2.55
2019-02-12T00:25:27.394Z,2.95
2019-02-12T00:26:28.690Z,3.10
2019-02-12T00:27:30.059Z,2.60
2019-02-12T00:28:31.394Z,2.87
2019-02-12T00:29:32.737Z,3.02
2019-02-12T00:30:34.055Z,3.02
2019-02-12T00:31:35.678Z,2.77
2019-02-12T00:32:37.038Z,2.62
2019-02-12T00:33:38.604Z,2.33
2019-02-12T00:34:39.921Z,2.40
2019-02-12T00:35:41.276Z,2.20
2019-02-12T00:36:42.607Z,2.22
2019-02-12T00:37:43.942Z,2.37
2019-02-12T00:38:45.317Z,2.00
2019-02-12T00:39:46.685Z,2.62
2019-02-12T00:40:48.075Z,2.37
2019-02-12T00:41:49.400Z,2.20
2019-02-12T00:42:50.719Z,2.47
2019-02-12T00:43:52.092Z,2.40
2019-02-12T00:44:53.432Z,2.42
2019-02-12T00:45:54.794Z,2.37
2019-02-12T00:46:56.122Z,1.90
2019-02-12T00:47:57.450Z,2.47
2019-02-12T00:48:58.783Z,2.85
2019-02-12T00:50:00.124Z,2.85
2019-02-12T00:51:01.583Z,2.35
2019-02-12T00:52:02.888Z,2.70
2019-02-12T00:53:04.242Z,2.98
2019-02-12T00:54:05.606Z,2.60
2019-02-12T00:55:06.986Z,2.75
2019-02-12T00:56:08.314Z,3.12
2019-02-12T00:57:09.655Z,2.77
2019-02-12T00:58:10.998Z,3.02
2019-02-12T00:59:12.315Z,3.15
2019-02-12T01:00:13.698Z,2.60
2019-02-12T01:01:15.299Z,2.33
2019-02-12T01:02:16.638Z,2.40
2019-02-12T01:03:18.181Z,3.08
2019-02-12T01:04:19.570Z,3.42
2019-02-12T01:05:20.985Z,2.70
2019-02-12T01:06:22.698Z,2.50
2019-02-12T01:07:24.631Z,2.65
2019-02-12T01:08:26.209Z,2.95
2019-02-12T01:09:28.107Z,3.70
2019-02-12T01:10:29.840Z,2.75
2019-02-12T01:11:31.454Z,2.70
2019-02-12T01:12:33.136Z,3.33
2019-02-12T01:13:34.998Z,3.05
2019-02-12T01:14:36.717Z,2.50
2019-02-12T01:15:38.203Z,2.65
2019-02-12T01:16:41.027Z,3.25
2019-02-12T01:17:43.141Z,2.50
2019-02-12T01:18:44.569Z,2.47
2019-02-12T01:19:46.102Z,2.85
2019-02-12T01:20:47.647Z,3.70
2019-02-12T01:21:49.177Z,2.85
2019-02-12T01:22:50.645Z,2.58
2019-02-12T01:23:52.346Z,2.80
2019-02-12T01:24:53.890Z,3.05
2019-02-12T01:25:55.743Z,2.92
2019-02-12T01:26:57.738Z,2.52
2019-02-12T01:27:59.319Z,2.87
2019-02-12T01:29:00.856Z,2.87
2019-02-12T01:30:02.357Z,2.80
2019-02-12T01:31:04.162Z,2.60
2019-02-12T01:32:05.621Z,2.65
2019-02-12T01:33:07.003Z,2.90
2019-02-12T01:34:08.715Z,2.80
2019-02-12T01:35:10.346Z,3.05
2019-02-12T01:36:12.061Z,3.27
2019-02-12T01:37:13.720Z,2.27
2019-02-12T01:38:15.239Z,2.60
2019-02-12T01:39:16.776Z,2.95
2019-02-12T01:40:18.442Z,3.55
2019-02-12T01:41:20.126Z,3.15
2019-02-12T01:42:22.682Z,2.58
2019-02-12T01:43:24.011Z,3.17
2019-02-12T01:44:25.334Z,2.35
2019-02-12T01:45:26.642Z,3.40
2019-02-12T01:46:27.973Z,2.80
2019-02-12T01:47:29.329Z,3.17
2019-02-12T01:48:30.654Z,2.92
2019-02-12T01:49:31.972Z,2.75
2019-02-12T01:50:33.314Z,2.90
2019-02-12T01:51:35.308Z,3.05
2019-02-12T01:52:36.832Z,3.65
2019-02-12T01:53:38.210Z,2.70
2019-02-12T01:54:39.531Z,2.95
2019-02-12T01:55:40.870Z,2.42
2019-02-12T01:56:42.206Z,2.55
2019-02-12T01:57:43.576Z,2.58
2019-02-12T01:58:45.071Z,2.47
2019-02-12T01:59:46.396Z,2.42
2019-02-12T02:00:47.714Z,2.50
2019-02-12T02:01:49.047Z,2.10
2019-02-12T02:02:50.422Z,1.90
2019-02-12T02:03:52.070Z,2.55
2019-02-12T02:04:53.403Z,1.98
2019-02-12T02:05:54.787Z,2.40
2019-02-12T02:06:56.096Z,2.10
2019-02-12T02:07:57.555Z,2.55
2019-02-12T02:08:58.915Z,2.67
2019-02-12T02:10:00.299Z,2.30
2019-02-12T02:11:01.674Z,2.33
2019-02-12T02:12:03.013Z,3.20
2019-02-12T02:13:04.336Z,2.30
2019-02-12T02:14:05.694Z,2.62
2019-02-12T02:15:07.020Z,2.67
2019-02-12T02:16:08.337Z,2.33
2019-02-12T02:17:09.698Z,2.58
2019-02-12T02:18:11.025Z,2.65
2019-02-12T02:19:12.362Z,2.60
2019-02-12T02:20:16.687Z,2.40
2019-02-12T02:21:18.052Z,2.42
2019-02-12T02:22:19.382Z,2.83
2019-02-12T02:23:20.692Z,2.98
2019-02-12T02:24:22.094Z,2.10
2019-02-12T02:25:23.458Z,2.67
2019-02-12T02:26:24.879Z,2.00
2019-02-12T02:27:26.201Z,2.45
2019-02-12T02:28:27.524Z,1.92
2019-02-12T02:29:28.888Z,2.60
2019-02-12T02:30:30.210Z,2.25
2019-02-12T02:31:31.577Z,2.75
2019-02-12T02:32:32.945Z,2.40
2019-02-12T02:33:34.279Z,2.08
2019-02-12T02:34:35.600Z,2.55
2019-02-12T02:35:36.932Z,2.52
2019-02-12T02:36:38.290Z,2.33
2019-02-12T02:37:39.625Z,2.30
2019-02-12T02:38:40.939Z,2.35
2019-02-12T02:39:42.284Z,2.30
2019-02-12T02:40:43.691Z,2.67
2019-02-12T02:41:45.075Z,3.08
2019-02-12T02:42:46.495Z,3.67
2019-02-12T02:43:47.821Z,2.20
2019-02-12T02:44:49.171Z,3.02
2019-02-12T02:45:50.585Z,3.27
2019-02-12T02:46:51.950Z,2.95
2019-02-12T02:47:53.348Z,2.37
2019-02-12T02:48:54.859Z,2.45
2019-02-12T02:49:56.190Z,2.60
2019-02-12T02:50:57.532Z,2.50
2019-02-12T02:51:58.901Z,3.10
2019-02-12T02:53:00.223Z,2.50
2019-02-12T02:54:01.606Z,2.70
2019-02-12T02:55:02.931Z,2.60
2019-02-12T02:56:04.342Z,3.15
2019-02-12T02:57:05.711Z,2.72
2019-02-12T02:58:07.031Z,2.62
2019-02-12T02:59:08.356Z,2.95
2019-02-12T03:00:09.692Z,2.98
2019-02-12T03:01:11.060Z,3.33
2019-02-12T03:02:12.465Z,3.20
2019-02-12T03:03:13.775Z,3.20
2019-02-12T03:04:15.102Z,3.02
2019-02-12T03:05:16.464Z,2.47
2019-02-12T03:06:17.797Z,2.52
2019-02-12T03:07:19.146Z,3.00
2019-02-12T03:08:20.466Z,2.90
2019-02-12T03:09:21.792Z,2.37
2019-02-12T03:10:23.281Z,3.00
2019-02-12T03:11:24.598Z,2.75
2019-02-12T03:12:25.918Z,2.58
2019-02-12T03:13:27.236Z,3.42
2019-02-12T03:14:28.560Z,3.20
2019-02-12T03:15:29.962Z,2.33
2019-02-12T03:16:31.274Z,2.47
2019-02-12T03:17:32.629Z,2.42
2019-02-12T03:18:33.987Z,2.98
2019-02-12T03:19:35.362Z,2.90
2019-02-12T03:20:36.679Z,2.20
2019-02-12T03:21:38.030Z,2.45
2019-02-12T03:22:39.401Z,2.58
2019-02-12T03:23:40.742Z,2.45
2019-02-12T03:24:42.298Z,2.52
2019-02-12T03:25:43.725Z,2.80
2019-02-12T03:26:45.243Z,2.65
2019-02-12T03:27:46.616Z,2.75
2019-02-12T03:28:47.917Z,2.40
2019-02-12T03:29:49.240Z,2.67
2019-02-12T03:30:50.560Z,2.02
2019-02-12T03:31:51.874Z,2.67
2019-02-12T03:32:53.251Z,2.22
2019-02-12T03:33:54.550Z,2.27
2019-02-12T03:34:55.885Z,2.60
2019-02-12T03:35:57.261Z,3.05
2019-02-12T03:36:58.565Z,2.50
2019-02-12T03:37:59.953Z,2.40
2019-02-12T03:39:01.289Z,2.58
2019-02-12T03:40:02.801Z,2.30
2019-02-12T03:41:04.134Z,2.17
2019-02-12T03:42:05.550Z,2.30
2019-02-12T03:43:06.948Z,2.17
2019-02-12T03:44:08.337Z,2.35
2019-02-12T03:45:09.673Z,2.08
2019-02-12T03:46:11.005Z,2.30
2019-02-12T03:47:12.330Z,2.40
2019-02-12T03:48:13.676Z,2.55
2019-02-12T03:49:15.025Z,2.08
2019-02-12T03:50:16.426Z,2.35
2019-02-12T03:51:17.927Z,2.60
2019-02-12T03:52:19.239Z,2.60
2019-02-12T03:53:20.589Z,2.47
2019-02-12T03:54:21.916Z,2.20
2019-02-12T03:55:23.287Z,2.67
2019-02-12T03:56:24.592Z,2.77
2019-02-12T03:57:25.915Z,2.77
2019-02-12T03:58:27.250Z,2.33
2019-02-12T03:59:28.585Z,3.00
2019-02-12T04:00:29.967Z,2.70
2019-02-12T04:01:31.293Z,2.02
2019-02-12T04:02:32.617Z,2.47
2019-02-12T04:03:33.971Z,2.15
2019-02-12T04:04:35.376Z,2.52
2019-02-12T04:05:36.756Z,2.75
2019-02-12T04:06:38.090Z,2.30
2019-02-12T04:07:39.462Z,2.25
2019-02-12T04:08:40.854Z,3.05
2019-02-12T04:09:42.194Z,2.47
2019-02-12T04:10:43.560Z,2.60
2019-02-12T04:11:44.986Z,2.65
2019-02-12T04:12:46.348Z,2.33
2019-02-12T04:13:47.678Z,2.83
2019-02-12T04:14:49.033Z,2.42
2019-02-12T04:15:50.382Z,2.62
2019-02-12T04:16:51.699Z,3.30
2019-02-12T04:17:53.042Z,2.98
2019-02-12T04:18:54.370Z,2.67
2019-02-12T04:19:55.684Z,2.33
2019-02-12T04:20:57.035Z,3.52
2019-02-12T04:21:58.366Z,3.17
2019-02-12T04:22:59.691Z,3.02
2019-02-12T04:24:01.007Z,2.52
2019-02-12T04:25:02.364Z,2.83
2019-02-12T04:26:03.736Z,2.80
2019-02-12T04:27:05.070Z,2.90
2019-02-12T04:28:06.402Z,2.85
2019-02-12T04:29:07.817Z,3.15
2019-02-12T04:30:09.217Z,2.33
2019-02-12T04:31:10.572Z,2.80
2019-02-12T04:32:11.885Z,2.52
2019-02-12T04:33:13.225Z,3.10
2019-02-12T04:34:14.563Z,2.67
2019-02-12T04:35:16.253Z,2.55
2019-02-12T04:36:17.590Z,2.95
2019-02-12T04:37:19.137Z,3.85
2019-02-12T04:38:20.468Z,2.65
2019-02-12T04:39:22.017Z,2.83
2019-02-12T04:40:23.413Z,3.20
2019-02-12T04:41:24.752Z,2.60
2019-02-12T04:42:26.064Z,2.52
2019-02-12T04:43:27.437Z,2.85
2019-02-12T04:44:28.763Z,3.22
2019-02-12T04:45:30.341Z,2.67
2019-02-12T04:46:31.661Z,3.00
2019-02-12T04:47:33.266Z,2.25
2019-02-12T04:48:34.581Z,2.50
2019-02-12T04:49:35.942Z,2.98
2019-02-12T04:50:37.276Z,2.20
2019-02-12T04:51:38.615Z,3.08
2019-02-12T04:52:40.147Z,2.90
2019-02-12T04:53:41.495Z,2.10
2019-02-12T04:54:42.829Z,2.02
2019-02-12T04:55:44.167Z,2.50
2019-02-12T04:56:45.534Z,2.42
2019-02-12T04:57:46.875Z,3.05
2019-02-12T04:58:48.241Z,2.85
2019-02-12T04:59:49.589Z,2.65
2019-02-12T05:00:50.999Z,2.83
2019-02-12T05:01:52.344Z,2.55
2019-02-12T05:02:53.665Z,2.52
2019-02-12T05:03:55.001Z,2.83
2019-02-12T05:04:56.366Z,2.58
2019-02-12T05:05:57.702Z,2.40
2019-02-12T05:06:59.040Z,2.33
2019-02-12T05:08:00.369Z,2.33
2019-02-12T05:09:01.687Z,2.47
2019-02-12T05:10:03.040Z,3.05
2019-02-12T05:11:04.359Z,2.10
2019-02-12T05:12:05.694Z,2.75
2019-02-12T05:13:07.062Z,2.30
2019-02-12T05:14:08.369Z,2.33
2019-02-12T05:15:09.714Z,3.65
2019-02-12T05:16:11.026Z,2.87
2019-02-12T05:17:12.387Z,3.67
2019-02-12T05:18:13.797Z,2.62
2019-02-12T05:19:15.122Z,3.00
2019-02-12T05:20:16.439Z,2.52
2019-02-12T05:21:17.771Z,2.62
2019-02-12T05:22:19.124Z,2.37
2019-02-12T05:23:20.450Z,2.47
2019-02-12T05:24:21.769Z,2.65
2019-02-12T05:25:23.141Z,2.65
2019-02-12T05:26:24.590Z,3.00
2019-02-12T05:27:25.900Z,2.20
2019-02-12T05:28:27.263Z,2.05
2019-02-12T05:29:28.592Z,2.60
2019-02-12T05:30:29.949Z,2.65
2019-02-12T05:31:31.257Z,2.20
2019-02-12T05:32:32.602Z,2.37
2019-02-12T05:33:33.945Z,2.40
2019-02-12T05:34:35.266Z,2.65
2019-02-12T05:35:36.581Z,2.90
2019-02-12T05:36:37.955Z,2.62
2019-02-12T05:37:39.368Z,3.15
2019-02-12T05:38:40.689Z,2.98
2019-02-12T05:39:42.049Z,2.98
2019-02-12T05:40:43.473Z,3.02
2019-02-12T05:41:44.808Z,2.47
2019-02-12T05:42:46.157Z,2.58
2019-02-12T05:43:47.483Z,3.35
2019-02-12T05:44:48.838Z,3.40
2019-02-12T05:45:50.183Z,3.08
2019-02-12T05:46:51.512Z,3.02
2019-02-12T05:47:52.832Z,2.75
2019-02-12T05:48:54.169Z,2.87
2019-02-12T05:49:55.509Z,2.87
2019-02-12T05:50:56.844Z,3.12
2019-02-12T05:51:58.209Z,3.22
2019-02-12T05:52:59.825Z,3.20
2019-02-12T05:54:01.135Z,3.12
2019-02-12T05:55:02.469Z,2.90
2019-02-12T05:56:04.045Z,2.72
2019-02-12T05:57:05.369Z,3.72
2019-02-12T05:58:06.702Z,2.95
2019-02-12T05:59:08.023Z,3.45
2019-02-12T06:00:09.368Z,2.92
2019-02-12T06:01:10.734Z,3.08
2019-02-12T06:02:12.100Z,3.55
2019-02-12T06:03:13.425Z,3.40
2019-02-12T06:04:16.169Z,2.70
2019-02-12T06:05:17.534Z,2.90
2019-02-12T06:06:18.854Z,2.55
2019-02-12T06:07:20.174Z,3.25
2019-02-12T06:08:21.546Z,2.95
2019-02-12T06:09:22.906Z,2.98
2019-02-12T06:10:24.232Z,2.60
2019-02-12T06:11:27.515Z,2.70
2019-02-12T06:12:28.826Z,3.30
2019-02-12T06:13:30.161Z,3.50
2019-02-12T06:14:31.527Z,3.33
2019-02-12T06:15:32.882Z,4.03
2019-02-12T06:16:34.372Z,3.35
2019-02-12T06:17:35.693Z,3.52
2019-02-12T06:19:58.002Z,3.45
2019-02-12T06:20:59.377Z,3.52
2019-02-12T06:22:00.705Z,3.27
2019-02-12T06:23:04.134Z,3.50
2019-02-12T06:24:05.359Z,3.60
2019-02-12T06:25:08.713Z,3.05
2019-02-12T06:26:10.090Z,3.40
2019-02-12T06:27:31.407Z,3.80
2019-02-12T06:28:32.760Z,3.35
2019-02-12T06:29:34.202Z,3.98
2019-02-12T06:30:35.553Z,4.62
2019-02-12T06:31:36.941Z,3.40
2019-02-12T06:32:38.343Z,3.92
2019-02-12T06:33:39.693Z,3.50
2019-02-12T06:34:41.111Z,3.77
2019-02-12T06:36:58.614Z,3.80
2019-02-12T06:38:01.255Z,3.50
2019-02-12T06:39:02.628Z,3.27
2019-02-12T06:40:04.233Z,3.15
2019-02-12T06:41:05.611Z,3.77
2019-02-12T06:42:07.078Z,3.98
2019-02-12T06:43:08.578Z,3.90
2019-02-12T06:44:09.921Z,4.05
2019-02-12T06:45:11.447Z,3.62
2019-02-12T06:46:12.785Z,3.77
2019-02-12T06:47:14.114Z,3.83
2019-02-12T06:48:15.482Z,4.25
2019-02-12T06:49:16.845Z,3.55
2019-02-12T06:50:18.184Z,3.30
2019-02-12T06:51:19.590Z,4.12
2019-02-12T06:52:20.981Z,3.75
2019-02-12T06:53:22.447Z,3.40
2019-02-12T06:54:23.881Z,3.42
2019-02-12T06:55:25.215Z,3.50
2019-02-12T06:56:26.526Z,3.20
2019-02-12T06:57:29.062Z,3.00
2019-02-12T06:58:30.441Z,3.22
2019-02-12T06:59:31.793Z,3.60
2019-02-12T07:00:33.213Z,4.33
2019-02-12T07:01:34.612Z,3.98
2019-02-12T07:02:35.971Z,3.77
2019-02-12T07:03:37.316Z,3.90
2019-02-12T07:04:38.634Z,3.15
2019-02-12T07:05:39.970Z,3.92
2019-02-12T07:06:41.313Z,3.37
2019-02-12T07:07:42.655Z,4.28
2019-02-12T07:08:44.050Z,3.98
2019-02-12T07:09:45.582Z,3.75
2019-02-12T07:10:47.007Z,3.50
2019-02-12T07:11:48.444Z,3.62
2019-02-12T07:12:49.898Z,4.25
2019-02-12T07:13:51.261Z,4.08
2019-02-12T07:14:52.577Z,4.00
2019-02-12T07:15:53.934Z,4.08
2019-02-12T07:16:55.261Z,4.03
2019-02-12T07:17:56.627Z,4.10
2019-02-12T07:18:57.960Z,4.33
2019-02-12T07:19:59.292Z,4.53
2019-02-12T07:21:00.673Z,4.12
2019-02-12T07:22:02.000Z,4.80
2019-02-12T07:23:03.425Z,4.78
2019-02-12T07:24:04.751Z,4.00
2019-02-12T07:25:06.090Z,5.08
2019-02-12T07:26:07.446Z,3.77
2019-02-12T07:27:08.828Z,4.58
2019-02-12T07:28:10.132Z,5.03
2019-02-12T07:29:11.733Z,4.50
2019-02-12T07:30:13.062Z,4.40
2019-02-12T07:31:14.401Z,4.37
2019-02-12T07:32:15.784Z,5.60
2019-02-12T07:33:19.073Z,4.37
2019-02-12T07:34:20.342Z,5.20
2019-02-12T07:35:21.684Z,3.85
2019-02-12T07:36:23.063Z,4.55
2019-02-12T07:37:24.388Z,4.78
2019-02-12T07:38:25.724Z,4.75
2019-02-12T07:39:27.058Z,5.70
2019-02-12T07:40:28.413Z,10.93
2019-02-12T07:41:29.764Z,7.15
2019-02-12T07:42:31.194Z,5.53
2019-02-12T07:43:32.530Z,4.95
2019-02-12T07:44:33.870Z,5.00
2019-02-12T07:45:35.246Z,5.35
2019-02-12T07:46:36.594Z,5.22
2019-02-12T07:47:37.951Z,5.25
2019-02-12T07:48:39.274Z,5.47
2019-02-12T07:49:40.623Z,6.08
2019-02-12T07:50:42.043Z,6.03
2019-02-12T07:51:43.519Z,5.75
2019-02-12T07:52:44.904Z,6.08
2019-02-12T07:53:46.242Z,6.42
2019-02-12T07:54:47.557Z,6.42
2019-02-12T07:55:48.907Z,6.65
2019-02-12T07:56:50.248Z,5.45
2019-02-12T07:57:51.603Z,5.58
2019-02-12T07:58:52.976Z,5.30
2019-02-12T07:59:54.317Z,5.67
2019-02-12T08:00:55.673Z,5.00
2019-02-12T08:01:57.015Z,6.00
2019-02-12T08:02:58.338Z,5.37
2019-02-12T08:03:59.663Z,5.67
2019-02-12T08:06:21.981Z,6.12
2019-02-12T08:07:23.409Z,6.37
2019-02-12T08:08:24.766Z,6.35
2019-02-12T08:09:26.097Z,6.85
2019-02-12T08:10:27.594Z,6.08
2019-02-12T08:11:28.917Z,6.35
2019-02-12T08:12:30.241Z,6.85
2019-02-12T08:13:31.576Z,6.70
2019-02-12T08:14:33.058Z,5.80
2019-02-12T08:15:34.528Z,7.28
2019-02-12T08:16:35.862Z,7.30
2019-02-12T08:17:37.192Z,7.83
2019-02-12T08:18:38.515Z,6.62
2019-02-12T08:19:39.860Z,7.47
2019-02-12T08:20:41.257Z,7.33
2019-02-12T08:21:42.849Z,7.70
2019-02-12T08:22:44.216Z,6.20
2019-02-12T08:23:45.553Z,7.37
2019-02-12T08:24:46.875Z,7.40
2019-02-12T08:25:48.275Z,6.87
2019-02-12T08:26:49.766Z,6.95
2019-02-12T08:27:51.223Z,7.03
2019-02-12T08:28:52.675Z,7.62
2019-02-12T08:29:56.667Z,7.55
2019-02-12T08:30:58.080Z,6.60
2019-02-12T08:31:59.440Z,6.47
2019-02-12T08:33:00.959Z,8.15
2019-02-12T08:34:02.418Z,7.25
2019-02-12T08:35:03.861Z,7.17
2019-02-12T08:36:05.299Z,7.70
2019-02-12T08:37:06.682Z,7.20
2019-02-12T08:38:08.020Z,7.80
2019-02-12T08:39:09.332Z,7.45
2019-02-12T08:40:10.709Z,7.12
2019-02-12T08:41:12.136Z,7.83
2019-02-12T08:42:13.469Z,8.38
2019-02-12T08:43:14.863Z,7.30
2019-02-12T08:44:16.207Z,7.87
2019-02-12T08:45:17.528Z,8.28
2019-02-12T08:46:19.046Z,7.70
2019-02-12T08:47:20.461Z,7.62
2019-02-12T08:48:21.900Z,8.08
2019-02-12T08:49:23.233Z,7.90
2019-02-12T08:50:24.623Z,7.17
2019-02-12T08:51:26.274Z,8.53
2019-02-12T08:52:27.593Z,8.33
2019-02-12T08:53:28.934Z,7.30
2019-02-12T08:54:30.277Z,7.80
2019-02-12T08:55:31.634Z,7.87
2019-02-12T08:56:32.983Z,7.90
2019-02-12T08:57:34.297Z,7.22
2019-02-12T08:58:35.629Z,8.05
2019-02-12T08:59:36.982Z,8.45
2019-02-12T09:00:38.315Z,7.83
2019-02-12T09:01:39.668Z,7.62
2019-02-12T09:02:40.996Z,7.80
2019-02-12T09:03:42.333Z,7.53
2019-02-12T09:04:43.710Z,7.85
2019-02-12T09:05:45.044Z,7.60
2019-02-12T09:06:46.356Z,7.35
2019-02-12T09:07:47.830Z,7.70
2019-02-12T09:08:49.180Z,7.80
2019-02-12T09:09:50.600Z,7.03
2019-02-12T09:10:51.939Z,8.23
2019-02-12T09:11:53.310Z,7.60
2019-02-12T09:12:54.672Z,7.28
2019-02-12T09:13:56.006Z,6.45
2019-02-12T09:14:57.337Z,7.37
2019-02-12T09:15:58.668Z,5.90
2019-02-12T09:17:00.122Z,6.58
2019-02-12T09:18:01.535Z,8.03
2019-02-12T09:19:02.982Z,7.70
2019-02-12T09:20:04.301Z,6.70
2019-02-12T09:21:05.656Z,7.20
2019-02-12T09:22:08.194Z,7.50
2019-02-12T09:23:09.562Z,6.22
2019-02-12T09:24:10.926Z,6.90
2019-02-12T09:25:12.247Z,7.05
2019-02-12T09:26:13.630Z,7.00
2019-02-12T09:27:14.950Z,6.62
2019-02-12T09:28:16.345Z,6.60
2019-02-12T09:29:17.782Z,6.80
2019-02-12T09:30:19.147Z,6.03
2019-02-12T09:31:20.663Z,6.78
2019-02-12T09:32:21.976Z,6.90
2019-02-12T09:33:23.406Z,6.70
2019-02-12T09:34:24.889Z,6.12
2019-02-12T09:35:26.409Z,6.60
2019-02-12T09:36:27.824Z,6.15
2019-02-12T09:37:29.259Z,6.37
2019-02-12T09:38:30.620Z,6.72
2019-02-12T09:39:31.947Z,6.40
2019-02-12T09:40:33.254Z,6.50
2019-02-12T09:41:34.592Z,7.28
2019-02-12T09:42:35.922Z,6.42
2019-02-12T09:43:37.288Z,6.72
2019-02-12T09:44:38.648Z,6.42
2019-02-12T09:45:39.993Z,6.50
2019-02-12T09:46:41.314Z,6.95
2019-02-12T09:47:42.660Z,7.33
2019-02-12T09:48:44.007Z,8.00
2019-02-12T09:49:45.581Z,7.80
2019-02-12T09:50:47.007Z,7.95
2019-02-12T09:51:48.370Z,7.17
2019-02-12T09:52:49.719Z,7.15
2019-02-12T09:53:51.073Z,7.15
2019-02-12T09:54:54.127Z,6.22
2019-02-12T09:55:55.670Z,6.28
2019-02-12T09:56:57.129Z,6.47
2019-02-12T09:57:58.459Z,7.28
2019-02-12T09:58:59.824Z,7.85
2019-02-12T10:00:01.294Z,6.78
2019-02-12T10:01:02.621Z,7.58
2019-02-12T10:02:03.965Z,7.22
2019-02-12T10:03:05.325Z,6.78
2019-02-12T10:04:06.658Z,7.05
2019-02-12T10:05:08.003Z,7.60
2019-02-12T10:06:09.351Z,7.00
2019-02-12T10:07:11.016Z,6.67
2019-02-12T10:08:12.492Z,7.35
2019-02-12T10:09:13.824Z,6.87
2019-02-12T10:10:15.300Z,5.70
2019-02-12T10:11:16.623Z,6.33
2019-02-12T10:12:18.128Z,6.65
2019-02-12T10:13:19.528Z,6.37
2019-02-12T10:14:20.843Z,9.28
2019-02-12T10:15:22.186Z,6.92
2019-02-12T10:16:23.553Z,6.40
2019-02-12T10:17:24.891Z,6.12
2019-02-12T10:18:26.248Z,6.05
2019-02-12T10:19:27.582Z,5.87
2019-02-12T10:20:28.928Z,6.05
2019-02-12T10:21:30.293Z,5.33
2019-02-12T10:22:31.623Z,5.75
2019-02-12T10:23:32.950Z,6.25
2019-02-12T10:24:34.303Z,6.05
2019-02-12T10:25:35.698Z,5.62
2019-02-12T10:26:38.302Z,5.87
2019-02-12T10:27:39.765Z,5.72
2019-02-12T10:28:48.554Z,6.80
2019-02-12T10:29:45.624Z,5.08
2019-02-12T10:30:46.991Z,5.47
2019-02-12T10:31:48.322Z,5.42
2019-02-12T10:32:49.698Z,5.83
2019-02-12T10:33:51.125Z,4.55
2019-02-12T10:34:52.794Z,4.45
2019-02-12T10:35:55.467Z,4.50
2019-02-12T10:36:56.906Z,4.72
2019-02-12T10:37:58.255Z,5.37
2019-02-12T10:38:59.606Z,4.83
2019-02-12T10:40:01.054Z,4.80
2019-02-12T10:41:02.365Z,5.10
2019-02-12T10:42:03.707Z,4.78
2019-02-12T10:43:05.074Z,5.37
2019-02-12T10:44:06.447Z,6.00
2019-02-12T10:45:07.918Z,5.72
2019-02-12T10:46:09.258Z,7.53
2019-02-12T10:47:10.580Z,5.95
2019-02-12T10:48:11.992Z,5.35
2019-02-12T10:49:13.387Z,5.12
2019-02-12T10:50:14.749Z,5.10
2019-02-12T10:51:16.134Z,4.97
2019-02-12T10:52:17.462Z,4.95
2019-02-12T10:53:18.800Z,4.87
2019-02-12T10:54:27.764Z,5.20
2019-02-12T10:55:23.859Z,5.95
2019-02-12T10:56:25.223Z,5.37
2019-02-12T10:57:26.689Z,6.30
2019-02-12T10:58:28.003Z,4.95
2019-02-12T10:59:29.428Z,5.08
2019-02-12T11:00:30.922Z,5.45
2019-02-12T11:01:32.312Z,5.33
2019-02-12T11:02:33.874Z,6.33
2019-02-12T11:03:35.183Z,6.08
2019-02-12T11:04:36.505Z,5.95
2019-02-12T11:05:37.831Z,5.37
2019-02-12T11:06:39.195Z,6.12
2019-02-12T11:07:40.519Z,5.22
2019-02-12T11:08:42.058Z,5.95
2019-02-12T11:09:43.404Z,5.85
2019-02-12T11:10:45.173Z,7.65
2019-02-12T11:11:46.623Z,5.37
2019-02-12T11:12:47.974Z,4.58
2019-02-12T11:13:49.374Z,5.85
2019-02-12T11:14:50.725Z,5.78
2019-02-12T11:15:52.116Z,5.97
2019-02-12T11:16:53.445Z,5.33
2019-02-12T11:17:54.816Z,4.87
2019-02-12T11:18:56.251Z,5.22
2019-02-12T11:19:57.659Z,6.30
2019-02-12T11:20:59.133Z,5.22
2019-02-12T11:22:00.462Z,4.75
2019-02-12T11:23:01.804Z,4.90
2019-02-12T11:24:03.171Z,4.90
2019-02-12T11:25:04.495Z,4.60
2019-02-12T11:26:05.871Z,5.47
2019-02-12T11:27:07.312Z,5.37
2019-02-12T11:28:08.638Z,5.50
2019-02-12T11:29:09.982Z,5.60
2019-02-12T11:30:11.338Z,5.60
2019-02-12T11:31:12.761Z,5.85
2019-02-12T11:32:14.089Z,4.95
2019-02-12T11:33:15.438Z,5.33
2019-02-12T11:34:16.830Z,6.25
2019-02-12T11:35:18.224Z,5.17
2019-02-12T11:36:19.542Z,6.85
2019-02-12T11:37:21.080Z,5.78
2019-02-12T11:38:22.543Z,7.25
2019-02-12T11:39:23.878Z,5.87
2019-02-12T11:40:25.219Z,5.35
2019-02-12T11:41:26.610Z,6.22
2019-02-12T11:42:27.934Z,5.30
2019-02-12T11:43:29.325Z,5.40
2019-02-12T11:44:30.639Z,6.33
2019-02-12T11:45:31.997Z,6.28
2019-02-12T11:46:33.400Z,7.72
2019-02-12T11:47:34.782Z,6.42
2019-02-12T11:48:36.341Z,5.80
2019-02-12T11:49:37.765Z,6.78
2019-02-12T11:50:39.218Z,7.33
2019-02-12T11:51:40.803Z,6.85
2019-02-12T11:52:42.256Z,7.20
2019-02-12T11:53:43.575Z,6.33
2019-02-12T11:54:44.940Z,6.87
2019-02-12T11:55:46.296Z,6.40
2019-02-12T11:56:47.608Z,6.25
2019-02-12T11:57:48.957Z,6.95
2019-02-12T11:58:50.304Z,6.95
2019-02-12T11:59:52.377Z,6.28
2019-02-12T12:00:53.791Z,6.37
2019-02-12T12:01:55.170Z,6.55
2019-02-12T12:02:56.527Z,6.78
2019-02-12T12:03:57.855Z,6.80
2019-02-12T12:04:59.200Z,7.00
2019-02-12T12:06:00.578Z,6.87
2019-02-12T12:07:02.115Z,6.72
2019-02-12T12:08:03.445Z,7.08
2019-02-12T12:09:04.792Z,5.70
2019-02-12T12:10:07.488Z,5.03
2019-02-12T12:11:08.935Z,6.05
2019-02-12T12:12:10.403Z,5.80
2019-02-12T12:13:11.738Z,5.75
2019-02-12T12:14:13.087Z,5.45
2019-02-12T12:15:14.391Z,4.80
2019-02-12T12:16:15.745Z,5.08
2019-02-12T12:17:17.067Z,4.78
2019-02-12T12:18:18.401Z,5.30
2019-02-12T12:19:19.754Z,5.35
2019-02-12T12:20:21.129Z,5.15
2019-02-12T12:21:22.555Z,5.28
2019-02-12T12:22:23.956Z,5.30
2019-02-12T12:23:25.448Z,5.03
2019-02-12T12:24:26.908Z,5.45
2019-02-12T12:25:28.419Z,5.75
2019-02-12T12:26:29.785Z,5.67
2019-02-12T12:27:31.156Z,5.33
2019-02-12T12:28:32.542Z,6.60
2019-02-12T12:29:33.869Z,6.35
2019-02-12T12:30:35.216Z,6.45
2019-02-12T12:31:36.553Z,6.53
2019-02-12T12:32:37.875Z,5.83
2019-02-12T12:33:39.265Z,5.67
2019-02-12T12:34:40.722Z,6.37
2019-02-12T12:35:42.088Z,6.00
2019-02-12T12:36:43.671Z,5.22
2019-02-12T12:37:45.090Z,5.45
2019-02-12T12:38:46.453Z,6.50
2019-02-12T12:39:47.871Z,6.55
2019-02-12T12:40:49.264Z,7.40
2019-02-12T12:41:50.697Z,7.37
2019-02-12T12:42:52.020Z,6.62
2019-02-12T12:43:53.451Z,6.47
2019-02-12T12:44:54.926Z,8.80
2019-02-12T12:45:56.268Z,7.83
2019-02-12T12:46:57.603Z,6.10
2019-02-12T12:47:58.962Z,5.58
2019-02-12T12:49:00.337Z,6.30
2019-02-12T12:50:01.873Z,5.95
2019-02-12T12:51:03.317Z,5.65
2019-02-12T12:52:04.660Z,5.22
2019-02-12T12:53:07.107Z,4.97
2019-02-12T12:54:08.555Z,5.45
2019-02-12T12:55:09.895Z,6.90
2019-02-12T12:56:11.259Z,6.22
2019-02-12T12:57:12.611Z,9.03
2019-02-12T12:58:13.956Z,6.42
2019-02-12T12:59:15.370Z,6.03
2019-02-12T13:00:16.692Z,4.50
2019-02-12T13:01:18.151Z,4.83
2019-02-12T13:02:19.848Z,4.92
2019-02-12T13:03:21.263Z,6.30
2019-02-12T13:04:22.585Z,4.83
2019-02-12T13:05:23.935Z,5.03
2019-02-12T13:06:25.557Z,5.15
2019-02-12T13:07:26.945Z,5.28
2019-02-12T13:08:28.388Z,5.60
2019-02-12T13:09:29.938Z,5.25
2019-02-12T13:10:31.354Z,6.28
2019-02-12T13:11:32.673Z,4.78
2019-02-12T13:12:34.032Z,5.08
2019-02-12T13:13:35.385Z,4.53
2019-02-12T13:14:36.749Z,4.85
2019-02-12T13:15:38.077Z,4.87
2019-02-12T13:16:39.477Z,5.47
2019-02-12T13:17:40.822Z,6.42
2019-02-12T13:18:42.278Z,6.72
2019-02-12T13:19:43.830Z,5.80
2019-02-12T13:20:45.214Z,6.10
2019-02-12T13:21:46.591Z,5.60
2019-02-12T13:22:48.007Z,5.00
2019-02-12T13:23:49.372Z,4.40
2019-02-12T13:24:50.687Z,5.50
2019-02-12T13:25:52.033Z,5.03
2019-02-12T13:26:53.344Z,5.03
2019-02-12T13:27:54.721Z,5.92
2019-02-12T13:28:56.112Z,6.05
2019-02-12T13:29:57.556Z,5.67
2019-02-12T13:30:58.867Z,5.62
2019-02-12T13:32:00.224Z,5.75
2019-02-12T13:33:01.621Z,5.58
2019-02-12T13:34:02.940Z,5.60
2019-02-12T13:35:04.301Z,6.08
2019-02-12T13:36:05.644Z,5.75
2019-02-12T13:37:06.977Z,5.70
2019-02-12T13:38:08.303Z,6.47
2019-02-12T13:39:09.666Z,6.53
2019-02-12T13:40:11.051Z,6.42
2019-02-12T13:41:12.477Z,6.55
2019-02-12T13:42:13.855Z,6.75